createdAt,value
2023-01-02T00:02:02.219Z,67.80
2023-01-02T00:04:31.481Z,67.83
2023-01-02T00:07:02.279Z,68.14
2023-01-02T00:09:31.662Z,67.89
2023-01-02T00:12:00.617Z,68.11
2023-01-02T00:14:30.034Z,67.93
2023-01-02T00:16:59.113Z,67.70
2023-01-02T00:19:28.373Z,67.81
2023-01-02T00:21:57.428Z,67.69
2023-01-02T00:24:28.700Z,67.79
2023-01-02T00:26:57.801Z,67.73
2023-01-02T00:29:27.096Z,67.76
2023-01-02T00:31:56.228Z,67.79
2023-01-02T00:34:26.751Z,68.11
2023-01-02T00:36:55.881Z,67.99
2023-01-02T00:39:25.151Z,68.70
2023-01-02T00:41:55.664Z,68.52
2023-01-02T00:44:24.953Z,68.77
2023-01-02T00:46:54.871Z,68.35
2023-01-02T00:49:24.495Z,68.91
2023-01-02T00:51:53.482Z,68.60
2023-01-02T00:54:22.780Z,68.99
2023-01-02T00:56:51.919Z,68.68
2023-01-02T00:59:22.625Z,68.60
2023-01-02T01:01:52.060Z,68.79
2023-01-02T01:04:21.162Z,68.54
2023-01-02T01:06:51.076Z,68.79
2023-01-02T01:09:20.506Z,68.63
2023-01-02T01:11:49.466Z,68.50
2023-01-02T01:14:18.961Z,68.43
2023-01-02T01:16:49.441Z,68.43
2023-01-02T01:19:18.683Z,68.38
2023-01-02T01:21:47.652Z,68.28
2023-01-02T01:24:17.670Z,68.37
2023-01-02T01:26:46.761Z,68.47
2023-01-02T01:29:16.014Z,68.38
2023-01-02T01:31:45.225Z,68.27
2023-01-02T01:34:16.254Z,68.59
2023-01-02T01:36:45.736Z,68.51
2023-01-02T01:39:15.035Z,68.33
2023-01-02T01:41:44.204Z,68.21
2023-01-02T01:44:42.813Z,68.35
2023-01-02T01:47:19.873Z,68.29
2023-01-02T01:49:52.831Z,68.25
2023-01-02T01:52:26.953Z,68.33
2023-01-02T01:55:01.035Z,68.37
2023-01-02T01:57:37.483Z,68.19
2023-01-02T02:00:08.319Z,68.54
2023-01-02T02:02:41.199Z,68.37
2023-01-02T02:05:16.134Z,68.52
2023-01-02T02:07:52.583Z,68.96
2023-01-02T02:10:22.303Z,68.58
2023-01-02T02:12:51.323Z,68.80
2023-01-02T02:15:29.310Z,68.85
2023-01-02T02:18:07.685Z,69.54
2023-01-02T02:20:51.169Z,69.14
2023-01-02T02:23:43.088Z,69.01
2023-01-02T02:26:49.716Z,68.83
2023-01-02T02:30:04.086Z,68.93
2023-01-02T02:32:56.490Z,68.78
2023-01-02T02:35:37.398Z,69.44
2023-01-02T02:38:13.188Z,69.25
2023-01-02T02:40:54.121Z,68.86
2023-01-02T02:43:31.423Z,68.76
2023-01-02T02:46:10.668Z,68.76
2023-01-02T02:48:46.518Z,68.82
2023-01-02T02:51:21.993Z,68.84
2023-01-02T02:53:59.301Z,68.72
2023-01-02T02:56:30.829Z,68.77
2023-01-02T02:59:00.930Z,68.71
2023-01-02T03:01:31.618Z,68.81
2023-01-02T03:04:01.143Z,68.83
2023-01-02T03:06:46.701Z,68.82
2023-01-02T03:09:20.272Z,68.99
2023-01-02T03:11:56.326Z,68.76
2023-01-02T03:14:32.789Z,68.80
2023-01-02T03:17:08.821Z,68.77
2023-01-02T03:19:44.211Z,68.77
2023-01-02T03:22:16.141Z,68.82
2023-01-02T03:24:47.799Z,68.79
2023-01-02T03:27:20.582Z,68.68
2023-01-02T03:29:55.677Z,68.70
2023-01-02T03:32:31.878Z,68.84
2023-01-02T03:35:05.377Z,68.86
2023-01-02T03:37:39.708Z,68.84
2023-01-02T03:40:14.482Z,68.76
2023-01-02T03:42:51.538Z,68.79
2023-01-02T03:45:26.485Z,68.75
2023-01-02T03:48:04.039Z,69.01
2023-01-02T03:50:37.904Z,68.74
2023-01-02T03:53:08.739Z,68.88
2023-01-02T03:55:41.693Z,68.91
2023-01-02T03:58:17.882Z,69.02
2023-01-02T04:00:57.116Z,68.95
2023-01-02T04:03:35.269Z,68.97
2023-01-02T04:06:10.569Z,69.11
2023-01-02T04:08:46.105Z,68.93
2023-01-02T04:11:19.103Z,69.12
2023-01-02T04:13:52.245Z,68.95
2023-01-02T04:16:25.494Z,69.08
2023-01-02T04:18:59.542Z,68.99
2023-01-02T04:21:33.585Z,69.06
2023-01-02T04:24:09.252Z,69.13
2023-01-02T04:26:46.200Z,69.04
2023-01-02T04:29:15.570Z,68.94
2023-01-02T04:31:48.667Z,69.07
2023-01-02T04:34:22.294Z,69.22
2023-01-02T04:36:51.927Z,69.20
2023-01-02T04:39:23.834Z,69.12
2023-01-02T04:41:53.109Z,69.22
2023-01-02T04:44:22.218Z,69.13
2023-01-02T04:46:51.496Z,69.23
2023-01-02T04:49:22.847Z,69.36
2023-01-02T04:51:52.232Z,69.27
2023-01-02T04:54:21.434Z,69.12
2023-01-02T04:56:50.587Z,69.06
2023-01-02T04:59:19.563Z,69.24
2023-01-02T05:01:49.003Z,69.17
2023-01-02T05:04:18.102Z,69.31
2023-01-02T05:06:48.928Z,69.37
2023-01-02T05:09:17.907Z,69.28
2023-01-02T05:11:48.181Z,69.33
2023-01-02T05:14:17.221Z,69.78
2023-01-02T05:16:46.526Z,69.52
2023-01-02T05:19:15.843Z,70.47
2023-01-02T05:22:02.733Z,70.05
2023-01-02T05:24:33.125Z,70.66
2023-01-02T05:27:02.505Z,70.65
2023-01-02T05:29:33.305Z,70.91
2023-01-02T05:32:02.795Z,71.02
2023-01-02T05:34:31.862Z,70.61
2023-01-02T05:37:01.243Z,70.85
2023-01-02T05:39:30.208Z,70.77
2023-01-02T05:42:00.944Z,71.10
2023-01-02T05:44:30.127Z,70.93
2023-01-02T05:46:59.348Z,70.59
2023-01-02T05:49:28.414Z,70.55
2023-01-02T05:51:57.772Z,70.51
2023-01-02T05:54:26.758Z,70.89
2023-01-02T05:56:57.207Z,70.44
2023-01-02T05:59:27.877Z,70.45
2023-01-02T06:02:03.191Z,70.23
2023-01-02T06:04:32.449Z,70.27
2023-01-02T06:07:01.951Z,70.29
2023-01-02T06:09:30.955Z,70.38
2023-01-02T06:12:00.385Z,70.22
2023-01-02T06:14:30.880Z,70.26
2023-01-02T06:17:01.107Z,70.16
2023-01-02T06:19:30.252Z,70.30
2023-01-02T06:21:59.538Z,70.36
2023-01-02T06:24:29.663Z,70.79
2023-01-02T06:26:59.060Z,70.51
2023-01-02T06:29:29.457Z,70.69
2023-01-02T06:31:58.957Z,70.90
2023-01-02T06:34:28.034Z,71.22
2023-01-02T06:36:57.416Z,70.99
2023-01-02T06:39:27.025Z,70.99
2023-01-02T06:42:21.406Z,70.74
2023-01-02T06:44:51.955Z,71.10
2023-01-02T06:47:21.614Z,70.96
2023-01-02T06:49:50.572Z,70.89
2023-01-02T06:52:20.112Z,70.88
2023-01-02T06:54:49.116Z,70.95
2023-01-02T06:57:18.568Z,70.92
2023-01-02T06:59:47.577Z,70.98
2023-01-02T07:02:18.405Z,71.24
2023-01-02T07:04:48.101Z,70.77
2023-01-02T07:07:17.421Z,70.99
2023-01-02T07:09:46.407Z,70.90
2023-01-02T07:12:15.662Z,70.81
2023-01-02T07:14:44.656Z,70.78
2023-01-02T07:17:14.384Z,70.69
2023-01-02T07:19:49.840Z,71.15
2023-01-02T07:22:22.590Z,71.10
2023-01-02T07:24:51.575Z,70.98
2023-01-02T07:27:20.980Z,71.04
2023-01-02T07:29:49.986Z,70.86
2023-01-02T07:32:25.411Z,71.16
2023-01-02T07:34:57.780Z,71.33
2023-01-02T07:37:27.333Z,71.37
2023-01-02T07:39:56.327Z,71.71
2023-01-02T07:42:25.651Z,71.28
2023-01-02T07:44:55.057Z,71.66
2023-01-02T07:47:24.435Z,71.32
2023-01-02T07:49:53.426Z,71.23
2023-01-02T07:52:24.059Z,71.14
2023-01-02T07:54:53.223Z,71.04
2023-01-02T07:57:22.464Z,71.15
2023-01-02T07:59:53.669Z,72.09
2023-01-02T08:02:23.234Z,71.63
2023-01-02T08:04:52.478Z,71.79
2023-01-02T08:07:23.377Z,71.95
2023-01-02T08:09:52.434Z,71.96
2023-01-02T08:12:21.747Z,71.73
2023-01-02T08:14:51.699Z,72.04
2023-01-02T08:17:21.080Z,71.71
2023-01-02T08:19:50.180Z,71.57
2023-01-02T08:22:19.842Z,71.85
2023-01-02T08:24:50.226Z,71.50
2023-01-02T08:27:19.828Z,71.48
2023-01-02T08:29:49.358Z,71.55
2023-01-02T08:32:18.838Z,72.39
2023-01-02T08:34:48.175Z,72.36
2023-01-02T08:37:17.295Z,71.68
2023-01-02T08:39:46.535Z,71.81
2023-01-02T08:42:17.544Z,72.77
2023-01-02T08:44:46.684Z,71.97
2023-01-02T08:47:16.368Z,72.13
2023-01-02T08:49:46.285Z,72.13
2023-01-02T08:52:15.662Z,72.00
2023-01-02T08:54:45.093Z,71.75
2023-01-02T08:57:15.931Z,71.80
2023-01-02T08:59:45.048Z,71.78
2023-01-02T09:02:15.804Z,71.96
2023-01-02T09:04:44.990Z,72.12
2023-01-02T09:07:16.034Z,71.78
2023-01-02T09:09:45.178Z,71.90
2023-01-02T09:12:14.487Z,72.10
2023-01-02T09:14:44.968Z,72.08
2023-01-02T09:17:14.497Z,71.84
2023-01-02T09:19:45.142Z,71.97
2023-01-02T09:22:14.553Z,71.81
2023-01-02T09:24:43.919Z,72.28
2023-01-02T09:27:13.827Z,71.88
2023-01-02T09:29:44.338Z,72.06
2023-01-02T09:32:13.724Z,72.04
2023-01-02T09:34:42.665Z,72.16
2023-01-02T09:37:11.938Z,72.41
2023-01-02T09:39:40.922Z,72.69
2023-01-02T09:42:16.712Z,72.42
2023-01-02T09:44:50.267Z,72.55
2023-01-02T09:47:21.832Z,72.53
2023-01-02T09:49:54.355Z,72.80
2023-01-02T09:52:27.568Z,72.49
2023-01-02T09:54:56.929Z,72.52
2023-01-02T09:57:41.488Z,72.82
2023-01-02T10:00:20.362Z,72.66
2023-01-02T10:03:08.052Z,72.60
2023-01-02T10:06:07.323Z,73.17
2023-01-02T10:08:51.688Z,72.73
2023-01-02T10:11:33.348Z,72.55
2023-01-02T10:14:18.500Z,72.53
2023-01-02T10:16:52.451Z,72.46
2023-01-02T10:19:29.031Z,72.52
2023-01-02T10:22:01.846Z,72.69
2023-01-02T10:24:41.362Z,72.69
2023-01-02T10:27:18.420Z,72.56
2023-01-02T10:29:53.148Z,72.40
2023-01-02T10:32:28.078Z,72.66
2023-01-02T10:35:10.668Z,72.49
2023-01-02T10:37:40.954Z,72.83
2023-01-02T10:40:10.938Z,72.63
2023-01-02T10:42:41.174Z,72.91
2023-01-02T10:45:17.161Z,72.83
2023-01-02T10:47:47.682Z,72.70
2023-01-02T10:50:22.024Z,72.73
2023-01-02T10:52:53.948Z,72.92
2023-01-02T10:55:34.945Z,73.04
2023-01-02T10:58:06.197Z,72.78
2023-01-02T11:00:37.698Z,72.93
2023-01-02T11:03:17.336Z,72.76
2023-01-02T11:05:49.493Z,73.02
2023-01-02T11:08:22.057Z,72.93
2023-01-02T11:10:52.443Z,72.68
2023-01-02T11:13:22.959Z,72.83
2023-01-02T11:15:58.271Z,72.69
2023-01-02T11:18:32.178Z,72.88
2023-01-02T11:21:05.122Z,72.89
2023-01-02T11:23:39.043Z,72.71
2023-01-02T11:26:20.341Z,73.10
2023-01-02T11:28:52.756Z,73.07
2023-01-02T11:31:23.978Z,73.19
2023-01-02T11:34:08.112Z,73.12
2023-01-02T11:36:37.901Z,72.87
2023-01-02T11:39:23.591Z,73.10
2023-01-02T11:42:17.941Z,72.96
2023-01-02T11:44:55.653Z,73.08
2023-01-02T11:47:33.718Z,72.87
2023-01-02T11:50:05.357Z,72.79
2023-01-02T11:52:47.492Z,72.70
2023-01-02T11:55:29.464Z,72.54
2023-01-02T11:58:07.089Z,72.40
2023-01-02T12:00:40.445Z,72.50
2023-01-02T12:03:18.934Z,72.51
2023-01-02T12:06:04.065Z,72.40
2023-01-02T12:08:50.665Z,72.46
2023-01-02T12:11:33.707Z,72.39
2023-01-02T12:14:14.035Z,72.50
2023-01-02T12:16:52.272Z,72.28
2023-01-02T12:19:47.363Z,72.27
2023-01-02T12:22:42.288Z,72.38
2023-01-02T12:25:36.126Z,72.28
2023-01-02T12:28:13.495Z,72.13
2023-01-02T12:30:49.702Z,72.07
2023-01-02T12:33:42.333Z,72.18
2023-01-02T12:36:25.816Z,72.28
2023-01-02T12:39:33.127Z,72.38
2023-01-02T12:42:19.512Z,72.31
2023-01-02T12:44:52.027Z,72.30
2023-01-02T12:47:49.536Z,72.33
2023-01-02T12:50:49.201Z,72.12
2023-01-02T12:53:38.668Z,72.20
2023-01-02T12:56:14.072Z,71.96
2023-01-02T12:59:06.788Z,71.69
2023-01-02T13:01:42.411Z,71.77
2023-01-02T13:04:18.142Z,71.90
2023-01-02T13:06:51.821Z,71.83
2023-01-02T13:09:28.715Z,72.01
2023-01-02T13:12:05.682Z,71.82
2023-01-02T13:14:40.993Z,71.86
2023-01-02T13:17:30.573Z,71.85
2023-01-02T13:20:13.534Z,71.69
2023-01-02T13:22:55.393Z,71.71
2023-01-02T13:25:26.221Z,71.49
2023-01-02T13:27:59.227Z,71.36
2023-01-02T13:30:44.417Z,71.64
2023-01-02T13:33:35.039Z,71.67
2023-01-02T13:36:17.638Z,71.56
2023-01-02T13:38:50.634Z,71.77
2023-01-02T13:41:21.551Z,71.89
2023-01-02T13:43:56.587Z,71.50
2023-01-02T13:49:21.943Z,71.52
2023-01-02T13:51:59.852Z,71.46
2023-01-02T13:54:38.121Z,71.38
2023-01-02T13:57:19.514Z,71.41
2023-01-02T14:00:01.609Z,71.55
2023-01-02T14:02:42.878Z,71.71
2023-01-02T14:05:49.258Z,71.43
2023-01-02T14:08:26.066Z,71.54
2023-01-02T14:10:58.364Z,71.32
2023-01-02T14:13:35.805Z,71.28
2023-01-02T14:16:45.835Z,71.12
2023-01-02T14:19:26.907Z,71.46
2023-01-02T14:22:06.596Z,71.45
2023-01-02T14:24:39.883Z,71.18
2023-01-02T14:27:22.701Z,71.09
2023-01-02T14:29:55.097Z,71.44
2023-01-02T14:32:36.976Z,71.26
2023-01-02T14:35:09.300Z,71.19
2023-01-02T14:37:44.052Z,71.09
2023-01-02T14:40:34.155Z,71.16
2023-01-02T14:43:23.633Z,71.18
2023-01-02T14:45:56.463Z,71.17
2023-01-02T14:48:33.263Z,71.07
2023-01-02T14:51:07.803Z,70.91
2023-01-02T14:53:42.464Z,71.08
2023-01-02T14:56:15.771Z,70.87
2023-01-02T14:58:47.218Z,71.13
2023-01-02T15:01:42.122Z,70.98
2023-01-02T15:04:21.754Z,70.75
2023-01-02T15:06:57.167Z,70.68
2023-01-02T15:09:33.897Z,70.60
2023-01-02T15:12:23.699Z,70.82
2023-01-02T15:14:53.828Z,70.75
2023-01-02T15:17:25.193Z,70.82
2023-01-02T15:19:55.823Z,70.84
2023-01-02T15:22:30.757Z,70.61
2023-01-02T15:24:59.866Z,70.74
2023-01-02T15:27:31.664Z,70.97
2023-01-02T15:30:02.963Z,70.63
2023-01-02T15:32:34.828Z,70.76
2023-01-02T15:35:23.694Z,70.87
2023-01-02T15:37:53.828Z,71.01
2023-01-02T15:40:27.761Z,70.81
2023-01-02T15:43:19.326Z,70.54
2023-01-02T15:45:51.458Z,70.59
2023-01-02T15:48:22.806Z,70.33
2023-01-02T15:50:56.476Z,70.32
2023-01-02T15:53:30.375Z,70.00
2023-01-02T15:56:00.391Z,70.16
2023-01-02T15:58:31.900Z,70.21
2023-01-02T16:01:15.467Z,70.31
2023-01-02T16:04:02.971Z,70.02
2023-01-02T16:06:40.287Z,69.99
2023-01-02T16:09:20.626Z,69.95
2023-01-02T16:11:53.018Z,70.35
2023-01-02T16:14:30.953Z,70.43
2023-01-02T16:17:04.818Z,70.30
2023-01-02T16:19:38.253Z,69.98
2023-01-02T16:22:21.100Z,70.26
2023-01-02T16:24:57.066Z,70.09
2023-01-02T16:27:29.906Z,70.26
2023-01-02T16:29:59.753Z,70.08
2023-01-02T16:32:30.097Z,70.01
2023-01-02T16:35:20.831Z,70.15
2023-01-02T16:37:57.205Z,69.86
2023-01-02T16:41:00.237Z,69.75
2023-01-02T16:43:34.406Z,69.62
2023-01-02T16:46:14.780Z,69.62
2023-01-02T16:48:45.112Z,69.63
2023-01-02T16:51:16.907Z,69.59
2023-01-02T16:53:47.547Z,69.47
2023-01-02T16:56:17.793Z,69.38
2023-01-02T16:58:47.157Z,69.21
2023-01-02T17:01:18.495Z,69.05
2023-01-02T17:03:47.822Z,69.51
2023-01-02T17:06:19.152Z,69.62
2023-01-02T17:08:49.839Z,69.25
2023-01-02T17:11:23.145Z,69.38
2023-01-02T17:13:52.655Z,69.41
2023-01-02T17:16:22.204Z,69.36
2023-01-02T17:18:51.256Z,69.46
2023-01-02T17:21:24.203Z,69.61
2023-01-02T17:23:58.198Z,69.38
2023-01-02T17:26:27.633Z,69.50
2023-01-02T17:28:56.924Z,69.70
2023-01-02T17:31:26.557Z,69.91
2023-01-02T17:33:55.866Z,69.84
2023-01-02T17:36:27.266Z,69.87
2023-01-02T17:38:59.732Z,69.90
2023-01-02T17:41:29.216Z,70.12
2023-01-02T17:44:02.628Z,70.02
2023-01-02T17:49:22.818Z,69.59
2023-01-02T17:51:52.078Z,70.09
2023-01-02T17:54:22.600Z,70.14
2023-01-02T17:56:52.088Z,70.28
2023-01-02T17:59:21.283Z,69.99
2023-01-02T18:01:51.182Z,70.08
2023-01-02T18:04:20.282Z,70.01
2023-01-02T18:06:49.696Z,70.01
2023-01-02T18:09:19.100Z,69.99
2023-01-02T18:11:50.529Z,69.91
2023-01-02T18:14:24.618Z,70.21
2023-01-02T18:16:57.409Z,70.27
2023-01-02T18:19:28.743Z,70.20
2023-01-02T18:21:58.232Z,69.97
2023-01-02T18:24:30.967Z,70.17
2023-01-02T18:27:12.065Z,69.99
2023-01-02T18:29:44.448Z,69.87
2023-01-02T18:32:21.571Z,69.88
2023-01-02T18:34:57.405Z,69.84
2023-01-02T18:37:30.266Z,70.14
2023-01-02T18:40:02.544Z,70.19
2023-01-02T18:42:37.427Z,69.88
2023-01-02T18:45:16.979Z,70.00
2023-01-02T18:47:48.405Z,69.99
2023-01-02T18:50:32.135Z,70.10
2023-01-02T18:53:12.540Z,69.76
2023-01-02T18:55:43.756Z,69.88
2023-01-02T18:58:34.102Z,69.91
2023-01-02T19:01:26.168Z,69.91
2023-01-02T19:04:26.682Z,69.87
2023-01-02T19:07:00.247Z,69.69
2023-01-02T19:09:33.291Z,69.57
2023-01-02T19:12:36.261Z,69.64
2023-01-02T19:15:33.379Z,69.81
2023-01-02T19:18:18.598Z,69.87
2023-01-02T19:20:53.871Z,69.40
2023-01-02T19:23:29.701Z,69.52
2023-01-02T19:26:12.925Z,69.33
2023-01-02T19:28:50.697Z,69.34
2023-01-02T19:31:21.794Z,69.08
2023-01-02T19:33:56.373Z,69.17
2023-01-02T19:36:36.611Z,68.94
2023-01-02T19:39:25.110Z,69.28
2023-01-02T19:42:11.837Z,69.01
2023-01-02T19:44:42.377Z,69.00
2023-01-02T19:47:13.754Z,68.57
2023-01-02T19:49:43.023Z,68.72
2023-01-02T19:52:12.438Z,68.70
2023-01-02T19:54:42.071Z,68.58
2023-01-02T19:57:12.667Z,68.72
2023-01-02T19:59:45.441Z,68.82
2023-01-02T20:02:18.344Z,68.81
2023-01-02T20:04:52.304Z,69.05
2023-01-02T20:07:22.585Z,69.19
2023-01-02T20:09:53.057Z,69.24
2023-01-02T20:12:34.185Z,69.48
2023-01-02T20:15:10.214Z,69.69
2023-01-02T20:17:43.515Z,69.92
2023-01-02T20:20:15.914Z,69.74
2023-01-02T20:22:46.623Z,69.37
2023-01-02T20:25:18.311Z,69.31
2023-01-02T20:27:50.075Z,69.24
2023-01-02T20:30:24.499Z,69.27
2023-01-02T20:32:56.953Z,69.09
2023-01-02T20:35:27.883Z,68.49
2023-01-02T20:37:57.349Z,69.04
2023-01-02T20:40:28.014Z,68.93
2023-01-02T20:42:57.449Z,68.51
2023-01-02T20:45:26.418Z,68.34
2023-01-02T20:47:57.119Z,68.06
2023-01-02T20:50:26.244Z,67.86
2023-01-02T20:52:57.074Z,68.08
2023-01-02T20:55:26.582Z,67.87
2023-01-02T20:57:56.301Z,67.14
2023-01-02T21:00:25.510Z,66.95
2023-01-02T21:02:56.697Z,66.22
2023-01-02T21:05:26.566Z,66.29
2023-01-02T21:07:55.642Z,66.44
2023-01-02T21:10:24.806Z,66.57
2023-01-02T21:13:10.829Z,66.62
2023-01-02T21:15:45.560Z,66.66
2023-01-02T21:18:18.586Z,66.67
2023-01-02T21:20:49.555Z,66.83
2023-01-02T21:23:19.685Z,67.03
2023-01-02T21:25:52.340Z,66.85
2023-01-02T21:28:22.738Z,66.93
2023-01-02T21:30:53.466Z,66.80
2023-01-02T21:33:27.231Z,66.99
2023-01-02T21:35:58.331Z,66.99
2023-01-02T21:38:28.899Z,67.13
2023-01-02T21:41:20.550Z,67.37
2023-01-02T21:43:50.193Z,67.44
2023-01-02T21:46:19.421Z,67.38
2023-01-02T21:48:50.473Z,67.53
2023-01-02T21:51:19.601Z,67.68
2023-01-02T21:53:48.953Z,67.54
2023-01-02T21:56:18.128Z,67.61
2023-01-02T21:58:47.589Z,67.72
2023-01-02T22:01:16.938Z,67.64
2023-01-02T22:03:46.268Z,67.61
2023-01-02T22:06:18.592Z,67.68
2023-01-02T22:08:48.011Z,67.71
2023-01-02T22:11:34.538Z,67.80
2023-01-02T22:14:03.973Z,67.74
2023-01-02T22:16:32.980Z,67.62
2023-01-02T22:19:02.423Z,67.40
2023-01-02T22:21:32.794Z,67.87
2023-01-02T22:24:02.569Z,67.58
2023-01-02T22:26:32.165Z,67.38
2023-01-02T22:29:01.716Z,67.60
2023-01-02T22:31:31.251Z,67.32
2023-01-02T22:34:01.620Z,66.96
2023-01-02T22:36:32.484Z,66.82
2023-01-02T22:39:26.920Z,66.49
2023-01-02T22:42:34.080Z,66.60
2023-01-02T22:45:07.285Z,66.71
2023-01-02T22:47:39.368Z,66.62
2023-01-02T22:50:12.280Z,66.91
2023-01-02T22:52:43.528Z,66.84
2023-01-02T22:55:18.234Z,66.98
2023-01-02T22:57:51.317Z,66.95
2023-01-02T23:00:23.363Z,67.03
2023-01-02T23:02:53.024Z,67.10
2023-01-02T23:05:22.941Z,66.98
2023-01-02T23:07:53.932Z,67.18
2023-01-02T23:10:23.922Z,67.16
2023-01-02T23:12:52.909Z,67.08
2023-01-02T23:15:22.343Z,67.27
2023-01-02T23:18:08.710Z,67.19
2023-01-02T23:20:38.004Z,66.89
2023-01-02T23:23:08.655Z,67.09
2023-01-02T23:25:42.340Z,66.78
2023-01-02T23:28:16.595Z,66.92
2023-01-02T23:30:55.342Z,66.78
2023-01-02T23:33:24.337Z,66.83
2023-01-02T23:35:54.139Z,66.86
2023-01-02T23:38:24.536Z,67.02
2023-01-02T23:40:53.905Z,66.85
2023-01-02T23:43:22.913Z,67.08
2023-01-02T23:45:52.798Z,67.07
2023-01-02T23:48:21.859Z,66.99
2023-01-02T23:50:58.721Z,67.03
2023-01-02T23:53:29.575Z,67.12
2023-01-02T23:56:00.126Z,66.96
2023-01-02T23:58:29.389Z,67.01
